createdAt,value
2022-10-15T00:01:41.881Z,49.20
2022-10-15T00:04:08.860Z,49.38
2022-10-15T00:06:36.014Z,50.10
2022-10-15T00:09:03.032Z,50.90
2022-10-15T00:11:31.614Z,51.13
2022-10-15T00:14:00.194Z,49.10
2022-10-15T00:16:28.881Z,50.83
2022-10-15T00:18:57.377Z,51.67
2022-10-15T00:21:24.536Z,53.88
2022-10-15T00:23:51.447Z,52.72
2022-10-15T00:26:23.245Z,52.95
2022-10-15T00:28:52.598Z,52.97
2022-10-15T00:31:24.588Z,54.25
2022-10-15T00:33:52.988Z,53.35
2022-10-15T00:36:23.545Z,54.38
2022-10-15T00:38:51.309Z,54.47
2022-10-15T00:41:25.761Z,55.30
2022-10-15T00:43:58.775Z,58.00
2022-10-15T00:46:39.255Z,57.10
2022-10-15T00:49:33.700Z,56.17
2022-10-15T00:52:16.170Z,53.97
2022-10-15T00:54:52.410Z,55.95
2022-10-15T00:57:19.811Z,57.78
2022-10-15T00:59:54.298Z,60.15
2022-10-15T01:02:21.882Z,59.53
2022-10-15T01:04:50.808Z,60.17
2022-10-15T01:09:49.625Z,57.97
2022-10-15T01:12:55.965Z,61.85
2022-10-15T01:15:31.878Z,59.20
2022-10-15T01:18:20.684Z,60.28
2022-10-15T01:21:04.756Z,59.72
2022-10-15T01:23:52.364Z,62.80
2022-10-15T01:26:34.642Z,60.17
2022-10-15T01:29:13.560Z,62.63
2022-10-15T01:32:07.888Z,59.42
2022-10-15T01:34:49.255Z,58.75
2022-10-15T01:37:27.225Z,59.55
2022-10-15T01:40:04.237Z,58.85
2022-10-15T01:42:44.071Z,59.47
2022-10-15T01:45:17.921Z,59.85
2022-10-15T01:47:58.975Z,61.15
2022-10-15T01:50:30.727Z,59.47
2022-10-15T01:53:00.070Z,61.33
2022-10-15T01:55:27.528Z,59.60
2022-10-15T01:57:58.576Z,61.40
2022-10-15T02:00:25.711Z,61.80
2022-10-15T02:02:52.474Z,62.03
2022-10-15T02:05:29.896Z,58.70
2022-10-15T02:08:19.059Z,59.97
2022-10-15T02:10:52.201Z,61.70
2022-10-15T02:13:24.589Z,59.67
2022-10-15T02:16:11.375Z,58.38
2022-10-15T02:19:02.257Z,59.30
2022-10-15T02:21:47.330Z,58.47
2022-10-15T02:24:20.339Z,59.10
2022-10-15T02:26:49.933Z,58.30
2022-10-15T02:29:21.678Z,57.92
2022-10-15T02:31:50.851Z,57.47
2022-10-15T02:34:20.986Z,58.40
2022-10-15T02:36:49.016Z,57.75
2022-10-15T02:39:21.138Z,57.50
2022-10-15T02:41:49.422Z,58.30
2022-10-15T02:44:16.683Z,60.22
2022-10-15T02:46:43.692Z,57.30
2022-10-15T02:49:12.093Z,57.65
2022-10-15T02:51:38.995Z,58.85
2022-10-15T02:54:07.159Z,58.00
2022-10-15T02:56:35.238Z,56.15
2022-10-15T02:59:03.294Z,54.92
2022-10-15T03:01:30.913Z,56.67
2022-10-15T03:03:58.402Z,56.75
2022-10-15T03:06:25.780Z,57.63
2022-10-15T03:08:53.057Z,57.70
2022-10-15T03:11:22.604Z,58.90
2022-10-15T03:13:49.440Z,56.50
2022-10-15T03:16:16.604Z,56.92
2022-10-15T03:18:45.741Z,54.38
2022-10-15T03:21:12.643Z,56.42
2022-10-15T03:23:40.115Z,56.97
2022-10-15T03:26:13.056Z,54.97
2022-10-15T03:28:40.154Z,56.30
2022-10-15T03:31:07.077Z,55.05
2022-10-15T03:33:35.012Z,57.83
2022-10-15T03:36:03.002Z,55.88
2022-10-15T03:38:29.762Z,56.83
2022-10-15T03:40:57.801Z,55.83
2022-10-15T03:43:38.750Z,56.30
2022-10-15T03:46:09.186Z,55.45
2022-10-15T03:48:40.553Z,55.40
2022-10-15T03:51:08.913Z,53.33
2022-10-15T03:53:36.022Z,54.35
2022-10-15T03:56:07.095Z,55.08
2022-10-15T03:58:37.448Z,55.97
2022-10-15T04:01:14.629Z,55.53
2022-10-15T04:03:41.679Z,56.70
2022-10-15T04:06:09.143Z,56.28
2022-10-15T04:08:37.182Z,57.03
2022-10-15T04:11:18.262Z,54.85
2022-10-15T04:13:50.134Z,53.92
2022-10-15T04:16:18.214Z,55.65
2022-10-15T04:18:45.158Z,55.15
2022-10-15T04:21:12.104Z,56.08
2022-10-15T04:23:41.485Z,56.65
2022-10-15T04:26:23.876Z,57.00
2022-10-15T04:28:51.016Z,57.72
2022-10-15T04:31:20.171Z,54.97
2022-10-15T04:33:50.797Z,56.72
2022-10-15T04:38:53.966Z,53.25
2022-10-15T04:41:27.250Z,54.35
2022-10-15T04:44:07.085Z,55.38
2022-10-15T04:46:34.115Z,56.58
2022-10-15T04:49:17.887Z,57.13
2022-10-15T04:51:45.547Z,58.30
2022-10-15T04:54:16.711Z,56.55
2022-10-15T04:57:16.253Z,56.60
2022-10-15T04:59:44.495Z,56.67
2022-10-15T05:02:30.142Z,57.47
2022-10-15T05:05:09.823Z,55.20
2022-10-15T05:07:46.185Z,56.88
2022-10-15T05:10:13.073Z,56.35
2022-10-15T05:12:39.874Z,57.92
2022-10-15T05:15:07.889Z,59.00
2022-10-15T05:17:35.368Z,58.08
2022-10-15T05:20:02.289Z,56.85
2022-10-15T05:22:30.395Z,57.90
2022-10-15T05:24:59.577Z,60.28
2022-10-15T05:27:31.758Z,59.17
2022-10-15T05:29:59.717Z,58.90
2022-10-15T05:32:35.353Z,55.85
2022-10-15T05:35:02.918Z,58.47
2022-10-15T05:37:46.799Z,57.50
2022-10-15T05:40:18.192Z,57.10
2022-10-15T05:43:01.131Z,55.50
2022-10-15T05:45:27.907Z,60.85
2022-10-15T05:47:57.193Z,57.63
2022-10-15T05:50:24.057Z,56.08
2022-10-15T05:52:54.912Z,57.65
2022-10-15T05:55:28.413Z,55.83
2022-10-15T05:57:55.774Z,56.55
2022-10-15T06:00:22.605Z,55.95
2022-10-15T06:05:24.994Z,55.78
2022-10-15T06:07:51.924Z,53.97
2022-10-15T06:10:18.971Z,55.55
2022-10-15T06:12:50.680Z,54.83
2022-10-15T06:15:18.937Z,56.30
2022-10-15T06:17:45.763Z,56.53
2022-10-15T06:20:13.032Z,55.83
2022-10-15T06:22:40.065Z,58.33
2022-10-15T06:25:07.689Z,57.53
2022-10-15T06:27:34.467Z,59.28
2022-10-15T06:30:01.240Z,59.17
2022-10-15T06:32:28.227Z,56.38
2022-10-15T06:34:55.152Z,58.33
2022-10-15T06:37:22.363Z,57.30
2022-10-15T06:39:51.347Z,56.50
2022-10-15T06:42:18.207Z,57.58
2022-10-15T06:44:47.717Z,57.08
2022-10-15T06:47:17.055Z,57.78
2022-10-15T06:49:47.475Z,59.40
2022-10-15T06:52:14.268Z,58.55
2022-10-15T06:54:41.063Z,58.63
2022-10-15T06:57:08.001Z,58.70
2022-10-15T06:59:38.506Z,58.20
2022-10-15T07:02:09.858Z,60.35
2022-10-15T07:04:36.902Z,57.25
2022-10-15T07:07:03.726Z,59.47
2022-10-15T07:09:31.161Z,58.22
2022-10-15T07:11:58.320Z,58.10
2022-10-15T07:14:25.185Z,61.72
2022-10-15T07:16:51.998Z,61.97
2022-10-15T07:19:20.388Z,63.17
2022-10-15T07:21:48.161Z,60.65
2022-10-15T07:24:15.046Z,60.47
2022-10-15T07:26:41.938Z,61.03
2022-10-15T07:29:08.976Z,57.85
2022-10-15T07:31:35.927Z,61.70
2022-10-15T07:34:02.782Z,60.72
2022-10-15T07:36:29.551Z,60.42
2022-10-15T07:38:56.323Z,61.28
2022-10-15T07:41:23.348Z,59.50
2022-10-15T07:43:53.718Z,61.92
2022-10-15T07:46:20.527Z,60.17
2022-10-15T07:48:54.062Z,59.67
2022-10-15T07:51:20.979Z,61.72
2022-10-15T07:53:48.050Z,59.67
2022-10-15T07:56:16.441Z,58.35
2022-10-15T07:58:51.268Z,60.75
2022-10-15T08:01:20.043Z,59.67
2022-10-15T08:03:47.571Z,60.13
2022-10-15T08:06:14.967Z,61.72
2022-10-15T08:08:41.907Z,61.47
2022-10-15T08:11:15.010Z,60.40
2022-10-15T08:13:42.566Z,58.22
2022-10-15T08:16:11.094Z,60.58
2022-10-15T08:18:38.780Z,59.40
2022-10-15T08:21:07.876Z,56.90
2022-10-15T08:23:35.470Z,59.53
2022-10-15T08:26:02.507Z,59.13
2022-10-15T08:28:30.107Z,57.30
2022-10-15T08:31:04.602Z,53.58
2022-10-15T08:33:34.462Z,56.55
2022-10-15T08:36:01.425Z,56.28
2022-10-15T08:38:30.993Z,55.70
2022-10-15T08:41:00.416Z,57.42
2022-10-15T08:43:36.447Z,56.78
2022-10-15T08:46:10.267Z,53.33
2022-10-15T08:48:42.872Z,56.67
2022-10-15T08:51:16.871Z,52.50
2022-10-15T08:53:48.543Z,53.85
2022-10-15T08:56:37.709Z,52.50
2022-10-15T08:59:26.173Z,50.97
2022-10-15T09:01:58.969Z,52.50
2022-10-15T09:04:51.988Z,52.03
2022-10-15T09:07:33.894Z,54.75
2022-10-15T09:10:19.374Z,53.60
2022-10-15T09:12:59.995Z,51.63
2022-10-15T09:15:30.855Z,53.20
2022-10-15T09:17:57.621Z,53.58
2022-10-15T09:20:33.412Z,50.63
2022-10-15T09:23:00.366Z,52.28
2022-10-15T09:25:35.004Z,49.85
2022-10-15T09:28:10.672Z,52.25
2022-10-15T09:30:55.290Z,44.60
2022-10-15T09:33:40.912Z,48.28
2022-10-15T09:36:35.333Z,47.03
2022-10-15T09:39:46.251Z,47.90
2022-10-15T09:42:25.357Z,46.13
2022-10-15T09:44:54.743Z,46.22
2022-10-15T09:47:34.042Z,48.88
2022-10-15T09:50:06.877Z,45.40
2022-10-15T09:53:04.772Z,45.65
2022-10-15T09:55:53.432Z,46.92
2022-10-15T09:58:37.701Z,42.05
2022-10-15T10:01:07.848Z,42.78
2022-10-15T10:03:36.799Z,42.67
2022-10-15T10:06:07.805Z,43.28
2022-10-15T10:11:23.060Z,39.20
2022-10-15T10:13:51.841Z,39.88
2022-10-15T10:16:21.233Z,39.78
2022-10-15T10:19:10.732Z,39.28
2022-10-15T10:21:42.013Z,36.53
2022-10-15T10:24:30.346Z,39.20
2022-10-15T10:26:59.008Z,38.45
2022-10-15T10:29:35.255Z,36.17
2022-10-15T10:32:20.862Z,35.35
2022-10-15T10:34:52.485Z,38.13
2022-10-15T10:37:20.199Z,38.05
2022-10-15T10:39:53.343Z,38.95
2022-10-15T10:42:20.131Z,37.25
2022-10-15T10:44:47.097Z,38.90
2022-10-15T10:47:17.224Z,36.47
2022-10-15T10:49:48.732Z,38.10
2022-10-15T10:52:33.093Z,37.47
2022-10-15T10:55:03.587Z,35.10
2022-10-15T10:57:40.494Z,34.45
2022-10-15T11:00:12.324Z,33.28
2022-10-15T11:02:43.807Z,32.55
2022-10-15T11:05:12.148Z,33.67
2022-10-15T11:07:57.970Z,31.60
2022-10-15T11:10:36.729Z,32.58
2022-10-15T11:13:35.832Z,30.77
2022-10-15T11:16:11.854Z,29.10
2022-10-15T11:18:44.789Z,27.77
2022-10-15T11:21:35.321Z,26.35
2022-10-15T11:24:11.087Z,27.58
2022-10-15T11:27:16.044Z,26.17
2022-10-15T11:29:58.024Z,26.40
2022-10-15T11:33:01.850Z,25.35
2022-10-15T11:35:53.341Z,25.83
2022-10-15T11:38:42.034Z,24.63
2022-10-15T11:41:30.350Z,24.38
2022-10-15T11:44:09.305Z,24.70
2022-10-15T11:47:03.956Z,25.08
2022-10-15T11:49:52.513Z,25.63
2022-10-15T11:52:43.129Z,25.00
2022-10-15T11:55:21.287Z,24.55
2022-10-15T11:57:54.310Z,24.60
2022-10-15T12:00:38.922Z,24.63
2022-10-15T12:03:14.446Z,23.00
2022-10-15T12:05:54.690Z,23.83
2022-10-15T12:08:24.277Z,24.02
2022-10-15T12:11:06.160Z,23.88
2022-10-15T12:13:50.398Z,24.02
2022-10-15T12:16:36.521Z,22.70
2022-10-15T12:19:19.992Z,22.08
2022-10-15T12:21:55.843Z,21.80
2022-10-15T12:24:44.366Z,22.90
2022-10-15T12:27:24.056Z,22.45
2022-10-15T12:30:11.799Z,20.35
2022-10-15T12:32:46.074Z,21.33
2022-10-15T12:35:16.036Z,21.55
2022-10-15T12:37:48.288Z,21.65
2022-10-15T12:40:21.110Z,20.33
2022-10-15T12:42:55.728Z,20.60
2022-10-15T12:45:40.518Z,20.20
2022-10-15T12:48:19.583Z,20.67
2022-10-15T12:50:49.304Z,21.88
2022-10-15T12:53:34.533Z,20.98
2022-10-15T12:56:10.722Z,21.50
2022-10-15T12:58:47.289Z,20.52
2022-10-15T13:01:14.065Z,21.25
2022-10-15T13:03:53.774Z,20.55
2022-10-15T13:06:20.580Z,19.95
2022-10-15T13:09:12.094Z,20.65
2022-10-15T13:11:54.048Z,21.10
2022-10-15T13:14:46.775Z,20.33
2022-10-15T13:17:22.031Z,20.25
2022-10-15T13:20:04.569Z,21.42
2022-10-15T13:22:34.854Z,21.67
2022-10-15T13:25:02.589Z,22.30
2022-10-15T13:27:30.381Z,22.10
2022-10-15T13:30:17.357Z,23.25
2022-10-15T13:32:50.481Z,24.48
2022-10-15T13:35:23.949Z,24.40
2022-10-15T13:37:50.723Z,24.52
2022-10-15T13:40:22.490Z,26.00
2022-10-15T13:43:06.786Z,26.48
2022-10-15T13:45:34.519Z,25.30
2022-10-15T13:48:01.309Z,28.13
2022-10-15T13:50:36.423Z,28.63
2022-10-15T13:53:09.367Z,27.95
2022-10-15T13:55:40.055Z,28.30
2022-10-15T13:58:22.294Z,27.30
2022-10-15T14:00:55.638Z,25.60
2022-10-15T14:03:28.592Z,27.98
2022-10-15T14:05:56.782Z,27.50
2022-10-15T14:08:23.584Z,28.00
2022-10-15T14:10:52.901Z,27.35
2022-10-15T14:13:19.974Z,26.13
2022-10-15T14:16:12.983Z,26.73
2022-10-15T14:18:48.166Z,27.75
2022-10-15T14:21:19.860Z,27.95
2022-10-15T14:23:48.572Z,26.45
2022-10-15T14:26:16.921Z,27.75
2022-10-15T14:28:50.951Z,28.02
2022-10-15T14:31:32.884Z,27.42
2022-10-15T14:33:59.605Z,29.33
2022-10-15T14:36:46.640Z,28.48
2022-10-15T14:39:42.833Z,29.02
2022-10-15T14:42:27.425Z,28.95
2022-10-15T14:44:55.954Z,28.92
2022-10-15T14:47:25.556Z,28.15
2022-10-15T14:50:00.019Z,29.70
2022-10-15T14:52:30.448Z,30.58
2022-10-15T14:55:20.599Z,30.45
2022-10-15T14:57:49.844Z,28.85
2022-10-15T15:00:38.456Z,30.27
2022-10-15T15:03:06.586Z,28.90
2022-10-15T15:05:53.837Z,29.55
2022-10-15T15:08:21.603Z,28.35
2022-10-15T15:10:49.996Z,28.65
2022-10-15T15:13:22.854Z,27.20
2022-10-15T15:15:50.231Z,27.88
2022-10-15T15:18:17.159Z,25.80
2022-10-15T15:20:46.473Z,25.70
2022-10-15T15:23:20.745Z,26.42
2022-10-15T15:25:51.596Z,27.67
2022-10-15T15:28:20.983Z,26.40
2022-10-15T15:30:56.113Z,26.95
2022-10-15T15:33:23.449Z,29.30
2022-10-15T15:36:05.240Z,27.95
2022-10-15T15:38:33.610Z,25.83
2022-10-15T15:41:03.478Z,25.85
2022-10-15T15:43:30.869Z,26.23
2022-10-15T15:45:57.697Z,26.25
2022-10-15T15:48:24.604Z,25.52
2022-10-15T15:50:52.265Z,27.23
2022-10-15T15:53:19.335Z,26.95
2022-10-15T15:55:46.274Z,25.83
2022-10-15T15:58:14.066Z,25.17
2022-10-15T16:00:40.839Z,26.30
2022-10-15T16:03:08.830Z,26.90
2022-10-15T16:05:35.721Z,27.92
2022-10-15T16:08:02.586Z,26.90
2022-10-15T16:10:29.393Z,26.38
2022-10-15T16:12:56.393Z,26.42
2022-10-15T16:15:23.248Z,24.95
2022-10-15T16:17:50.016Z,25.83
2022-10-15T16:20:16.968Z,26.00
2022-10-15T16:22:43.800Z,27.00
2022-10-15T16:25:10.874Z,25.67
2022-10-15T16:27:37.669Z,25.83
2022-10-15T16:30:05.070Z,26.17
2022-10-15T16:32:31.859Z,25.85
2022-10-15T16:34:58.705Z,25.33
2022-10-15T16:37:26.714Z,26.88
2022-10-15T16:39:53.724Z,26.17
2022-10-15T16:42:20.560Z,25.23
2022-10-15T16:44:47.353Z,24.33
2022-10-15T16:47:14.177Z,26.00
2022-10-15T16:49:42.475Z,24.85
2022-10-15T16:52:09.401Z,24.60
2022-10-15T16:54:36.517Z,22.88
2022-10-15T16:57:03.306Z,23.00
2022-10-15T16:59:30.341Z,20.55
2022-10-15T17:01:57.237Z,22.52
2022-10-15T17:04:24.102Z,21.60
2022-10-15T17:06:51.036Z,21.20
2022-10-15T17:09:17.854Z,22.88
2022-10-15T17:11:47.000Z,24.13
2022-10-15T17:14:16.312Z,23.67
2022-10-15T17:16:45.969Z,24.75
2022-10-15T17:19:14.629Z,26.08
2022-10-15T17:21:42.603Z,26.40
2022-10-15T17:24:12.465Z,25.65
2022-10-15T17:26:40.645Z,25.15
2022-10-15T17:29:13.886Z,26.58
2022-10-15T17:31:40.667Z,25.75
2022-10-15T17:34:10.873Z,26.63
2022-10-15T17:36:43.162Z,26.35
2022-10-15T17:39:14.621Z,24.58
2022-10-15T17:41:41.665Z,23.13
2022-10-15T17:44:09.211Z,25.08
2022-10-15T17:46:36.046Z,26.08
2022-10-15T17:49:03.628Z,26.85
2022-10-15T17:51:32.465Z,28.25
2022-10-15T17:54:02.095Z,28.67
2022-10-15T17:56:32.004Z,30.90
2022-10-15T17:59:00.575Z,29.77
2022-10-15T18:01:56.710Z,28.13
2022-10-15T18:04:19.635Z,26.85
2022-10-15T18:06:46.405Z,26.02
2022-10-15T18:09:24.559Z,27.60
2022-10-15T18:11:51.423Z,27.02
2022-10-15T18:14:18.490Z,24.83
2022-10-15T18:16:45.910Z,23.67
2022-10-15T18:19:12.996Z,24.45
2022-10-15T18:21:39.891Z,22.20
2022-10-15T18:24:06.743Z,19.48
2022-10-15T18:26:33.605Z,19.45
2022-10-15T18:29:00.549Z,22.50
2022-10-15T18:31:27.695Z,22.00
2022-10-15T18:33:56.079Z,21.75
2022-10-15T18:36:25.985Z,23.20
2022-10-15T18:38:55.331Z,21.25
2022-10-15T18:41:28.168Z,21.08
2022-10-15T18:43:58.920Z,20.75
2022-10-15T18:46:31.119Z,20.25
2022-10-15T18:48:58.531Z,20.38
2022-10-15T18:51:26.948Z,20.90
2022-10-15T18:53:54.226Z,19.27
2022-10-15T18:56:21.906Z,20.65
2022-10-15T18:58:48.891Z,20.85
2022-10-15T19:01:36.453Z,20.13
2022-10-15T19:04:06.235Z,20.35
2022-10-15T19:06:38.990Z,16.38
2022-10-15T19:09:08.915Z,16.92
2022-10-15T19:11:36.829Z,19.58
2022-10-15T19:14:04.995Z,18.25
2022-10-15T19:16:31.820Z,18.70
2022-10-15T19:19:12.609Z,17.35
2022-10-15T19:21:39.369Z,15.10
2022-10-15T19:24:06.621Z,15.43
2022-10-15T19:26:34.329Z,17.42
2022-10-15T19:29:02.119Z,17.77
2022-10-15T19:31:35.247Z,16.45
2022-10-15T19:34:02.712Z,16.63
2022-10-15T19:36:34.092Z,16.15
2022-10-15T19:39:04.158Z,17.80
2022-10-15T19:41:30.972Z,18.77
2022-10-15T19:43:57.973Z,17.80
2022-10-15T19:46:24.949Z,15.20
2022-10-15T19:48:51.727Z,16.33
2022-10-15T19:51:21.460Z,18.50
2022-10-15T19:53:56.349Z,19.65
2022-10-15T19:56:23.458Z,18.45
2022-10-15T19:58:56.028Z,18.52
2022-10-15T20:01:23.020Z,20.85
2022-10-15T20:03:49.912Z,20.13
2022-10-15T20:06:17.396Z,20.17
2022-10-15T20:08:44.226Z,19.20
2022-10-15T20:11:11.103Z,16.63
2022-10-15T20:13:38.079Z,16.98
2022-10-15T20:16:08.508Z,17.70
2022-10-15T20:18:36.177Z,19.45
2022-10-15T20:21:10.714Z,16.60
2022-10-15T20:23:38.506Z,17.65
2022-10-15T20:26:07.371Z,17.13
2022-10-15T20:28:39.055Z,16.15
2022-10-15T20:31:17.421Z,18.70
2022-10-15T20:33:44.922Z,18.77
2022-10-15T20:36:17.106Z,19.35
2022-10-15T20:38:45.862Z,17.48
2022-10-15T20:41:16.066Z,17.40
2022-10-15T20:43:44.162Z,17.17
2022-10-15T20:46:22.112Z,18.90
2022-10-15T20:48:49.626Z,16.45
2022-10-15T20:51:18.957Z,15.77
2022-10-15T20:53:46.296Z,17.17
2022-10-15T20:56:14.069Z,16.77
2022-10-15T20:58:41.005Z,18.27
2022-10-15T21:01:07.992Z,18.67
2022-10-15T21:03:34.981Z,16.27
2022-10-15T21:06:01.999Z,15.88
2022-10-15T21:08:28.859Z,17.20
2022-10-15T21:11:04.009Z,17.23
2022-10-15T21:13:31.179Z,17.67
2022-10-15T21:16:02.748Z,15.65
2022-10-15T21:18:29.963Z,17.88
2022-10-15T21:21:08.776Z,16.33
2022-10-15T21:23:36.789Z,16.25
2022-10-15T21:26:11.262Z,17.95
2022-10-15T21:28:38.187Z,17.73
2022-10-15T21:31:10.721Z,17.42
2022-10-15T21:33:37.757Z,17.10
2022-10-15T21:36:22.823Z,17.55
2022-10-15T21:38:53.476Z,17.88
2022-10-15T21:41:21.361Z,16.70
2022-10-15T21:46:20.219Z,16.65
2022-10-15T21:48:47.222Z,17.48
2022-10-15T21:51:16.822Z,18.33
2022-10-15T21:53:44.370Z,17.45
2022-10-15T21:56:11.682Z,18.55
2022-10-15T21:58:40.178Z,19.30
2022-10-15T22:01:09.094Z,18.33
2022-10-15T22:03:36.000Z,17.67
2022-10-15T22:06:02.851Z,18.00
2022-10-15T22:08:30.525Z,18.92
2022-10-15T22:11:12.130Z,18.40
2022-10-15T22:13:43.427Z,16.90
2022-10-15T22:16:11.356Z,17.48
2022-10-15T22:18:39.905Z,17.05
2022-10-15T22:21:15.875Z,17.38
2022-10-15T22:23:55.169Z,17.70
2022-10-15T22:26:26.581Z,18.30
2022-10-15T22:28:55.292Z,17.45
2022-10-15T22:31:22.383Z,16.58
2022-10-15T22:33:49.517Z,16.65
2022-10-15T22:36:28.459Z,17.15
2022-10-15T22:38:58.348Z,16.88
2022-10-15T22:41:25.119Z,16.75
2022-10-15T22:43:51.893Z,17.35
2022-10-15T22:46:18.644Z,15.20
2022-10-15T22:48:45.569Z,14.68
2022-10-15T22:51:13.962Z,18.73
2022-10-15T22:53:41.069Z,18.85
2022-10-15T22:56:12.482Z,17.63
2022-10-15T22:58:39.684Z,17.65
2022-10-15T23:01:26.780Z,16.98
2022-10-15T23:03:57.174Z,17.83
2022-10-15T23:06:25.796Z,16.67
2022-10-15T23:08:52.695Z,17.00
2022-10-15T23:11:25.882Z,15.60
2022-10-15T23:13:58.192Z,15.48
2022-10-15T23:16:28.943Z,15.30
2022-10-15T23:18:58.323Z,13.90
2022-10-15T23:21:40.667Z,15.10
2022-10-15T23:24:08.379Z,14.90
2022-10-15T23:26:36.571Z,14.00
2022-10-15T23:29:04.779Z,15.40
2022-10-15T23:31:33.966Z,13.57
2022-10-15T23:34:02.000Z,13.18
2022-10-15T23:36:29.769Z,14.27
2022-10-15T23:38:59.211Z,14.60
2022-10-15T23:41:27.343Z,15.07
2022-10-15T23:43:55.375Z,16.17
2022-10-15T23:46:22.365Z,15.18
2022-10-15T23:48:49.545Z,13.95
2022-10-15T23:51:30.208Z,14.13
2022-10-15T23:53:59.048Z,12.90
2022-10-15T23:56:26.529Z,12.45
2022-10-15T23:58:56.147Z,12.93
